sensor_id;sensor_type;location;lat;lon;timestamp;P1;durP1;ratioP1;P2;durP2;ratioP2
4963;SDS011;2497;47.410;9.740;2023-09-19T00:00:34;3.40;;;1.30;;
4963;SDS011;2497;47.410;9.740;2023-09-19T00:03:06;8.23;;;1.80;;
4963;SDS011;2497;47.410;9.740;2023-09-19T00:05:35;2.70;;;1.77;;
4963;SDS011;2497;47.410;9.740;2023-09-19T00:08:04;2.47;;;1.43;;
4963;SDS011;2497;47.410;9.740;2023-09-19T00:10:33;3.33;;;1.30;;
4963;SDS011;2497;47.410;9.740;2023-09-19T00:13:02;1.90;;;1.20;;
4963;SDS011;2497;47.410;9.740;2023-09-19T00:15:38;12.00;;;1.93;;
4963;SDS011;2497;47.410;9.740;2023-09-19T00:18:06;1.67;;;1.33;;
4963;SDS011;2497;47.410;9.740;2023-09-19T00:20:37;3.10;;;1.50;;
4963;SDS011;2497;47.410;9.740;2023-09-19T00:23:05;2.33;;;1.73;;
4963;SDS011;2497;47.410;9.740;2023-09-19T00:25:33;2.40;;;1.43;;
4963;SDS011;2497;47.410;9.740;2023-09-19T00:28:04;2.83;;;1.40;;
4963;SDS011;2497;47.410;9.740;2023-09-19T00:30:32;2.90;;;1.80;;
4963;SDS011;2497;47.410;9.740;2023-09-19T00:33:00;4.07;;;1.50;;
4963;SDS011;2497;47.410;9.740;2023-09-19T00:35:31;3.17;;;1.60;;
4963;SDS011;2497;47.410;9.740;2023-09-19T00:37:58;2.60;;;1.80;;
4963;SDS011;2497;47.410;9.740;2023-09-19T00:40:25;3.00;;;1.40;;
4963;SDS011;2497;47.410;9.740;2023-09-19T00:42:52;2.10;;;1.27;;
4963;SDS011;2497;47.410;9.740;2023-09-19T00:45:26;2.40;;;1.60;;
4963;SDS011;2497;47.410;9.740;2023-09-19T00:47:54;2.13;;;1.47;;
4963;SDS011;2497;47.410;9.740;2023-09-19T00:50:24;3.40;;;1.73;;
4963;SDS011;2497;47.410;9.740;2023-09-19T00:52:54;2.93;;;1.40;;
4963;SDS011;2497;47.410;9.740;2023-09-19T00:55:22;2.37;;;1.50;;
4963;SDS011;2497;47.410;9.740;2023-09-19T00:57:51;2.30;;;1.50;;
4963;SDS011;2497;47.410;9.740;2023-09-19T01:00:19;2.23;;;1.57;;
4963;SDS011;2497;47.410;9.740;2023-09-19T01:02:53;1.30;;;1.20;;
4963;SDS011;2497;47.410;9.740;2023-09-19T01:05:21;1.57;;;1.17;;
4963;SDS011;2497;47.410;9.740;2023-09-19T01:07:49;7.43;;;1.43;;
4963;SDS011;2497;47.410;9.740;2023-09-19T01:10:18;1.60;;;1.00;;
4963;SDS011;2497;47.410;9.740;2023-09-19T01:12:48;3.27;;;1.53;;
4963;SDS011;2497;47.410;9.740;2023-09-19T01:15:21;1.87;;;1.33;;
4963;SDS011;2497;47.410;9.740;2023-09-19T01:18:02;7.60;;;2.00;;
4963;SDS011;2497;47.410;9.740;2023-09-19T01:20:44;2.37;;;1.53;;
4963;SDS011;2497;47.410;9.740;2023-09-19T01:23:19;1.97;;;1.40;;
4963;SDS011;2497;47.410;9.740;2023-09-19T01:28:43;1.90;;;1.33;;
4963;SDS011;2497;47.410;9.740;2023-09-19T01:31:22;1.80;;;1.17;;
4963;SDS011;2497;47.410;9.740;2023-09-19T01:33:55;3.93;;;1.30;;
4963;SDS011;2497;47.410;9.740;2023-09-19T01:36:25;3.00;;;1.53;;
4963;SDS011;2497;47.410;9.740;2023-09-19T01:38:54;2.10;;;1.50;;
4963;SDS011;2497;47.410;9.740;2023-09-19T01:41:26;2.13;;;1.30;;
4963;SDS011;2497;47.410;9.740;2023-09-19T01:43:59;2.97;;;1.43;;
4963;SDS011;2497;47.410;9.740;2023-09-19T01:46:33;2.93;;;1.70;;
4963;SDS011;2497;47.410;9.740;2023-09-19T01:49:06;1.60;;;1.10;;
4963;SDS011;2497;47.410;9.740;2023-09-19T01:51:43;1.77;;;1.40;;
4963;SDS011;2497;47.410;9.740;2023-09-19T01:54:18;2.33;;;1.50;;
4963;SDS011;2497;47.410;9.740;2023-09-19T01:56:53;1.80;;;1.50;;
4963;SDS011;2497;47.410;9.740;2023-09-19T01:59:28;9.90;;;1.60;;
4963;SDS011;2497;47.410;9.740;2023-09-19T02:02:03;2.07;;;1.50;;
4963;SDS011;2497;47.410;9.740;2023-09-19T02:04:33;2.33;;;1.40;;
4963;SDS011;2497;47.410;9.740;2023-09-19T02:07:01;3.00;;;1.30;;
4963;SDS011;2497;47.410;9.740;2023-09-19T02:09:30;1.90;;;1.33;;
4963;SDS011;2497;47.410;9.740;2023-09-19T02:12:00;1.83;;;1.33;;
4963;SDS011;2497;47.410;9.740;2023-09-19T02:14:29;1.40;;;1.20;;
4963;SDS011;2497;47.410;9.740;2023-09-19T02:16:57;4.63;;;1.57;;
4963;SDS011;2497;47.410;9.740;2023-09-19T02:19:26;2.40;;;1.30;;
4963;SDS011;2497;47.410;9.740;2023-09-19T02:21:55;2.20;;;1.60;;
4963;SDS011;2497;47.410;9.740;2023-09-19T02:24:22;2.23;;;1.30;;
4963;SDS011;2497;47.410;9.740;2023-09-19T02:26:52;2.10;;;1.50;;
4963;SDS011;2497;47.410;9.740;2023-09-19T02:29:19;1.70;;;1.20;;
4963;SDS011;2497;47.410;9.740;2023-09-19T02:31:47;3.47;;;1.60;;
4963;SDS011;2497;47.410;9.740;2023-09-19T02:34:14;2.40;;;1.50;;
4963;SDS011;2497;47.410;9.740;2023-09-19T02:36:44;3.00;;;1.47;;
4963;SDS011;2497;47.410;9.740;2023-09-19T02:39:18;3.73;;;1.50;;
4963;SDS011;2497;47.410;9.740;2023-09-19T02:41:46;1.97;;;1.33;;
4963;SDS011;2497;47.410;9.740;2023-09-19T02:44:13;1.93;;;1.20;;
4963;SDS011;2497;47.410;9.740;2023-09-19T02:46:40;7.23;;;1.40;;
4963;SDS011;2497;47.410;9.740;2023-09-19T02:49:08;3.83;;;1.70;;
4963;SDS011;2497;47.410;9.740;2023-09-19T02:51:35;3.83;;;1.70;;
4963;SDS011;2497;47.410;9.740;2023-09-19T02:54:04;1.73;;;1.20;;
4963;SDS011;2497;47.410;9.740;2023-09-19T02:56:31;1.83;;;1.30;;
4963;SDS011;2497;47.410;9.740;2023-09-19T02:58:58;2.57;;;1.57;;
4963;SDS011;2497;47.410;9.740;2023-09-19T03:01:27;2.40;;;1.40;;
4963;SDS011;2497;47.410;9.740;2023-09-19T03:03:54;2.13;;;1.30;;
4963;SDS011;2497;47.410;9.740;2023-09-19T03:06:21;2.73;;;1.60;;
4963;SDS011;2497;47.410;9.740;2023-09-19T03:08:49;2.40;;;1.17;;
4963;SDS011;2497;47.410;9.740;2023-09-19T03:11:18;1.67;;;1.27;;
4963;SDS011;2497;47.410;9.740;2023-09-19T03:13:50;1.70;;;1.30;;
4963;SDS011;2497;47.410;9.740;2023-09-19T03:16:18;3.20;;;1.70;;
4963;SDS011;2497;47.410;9.740;2023-09-19T03:18:47;1.70;;;1.30;;
4963;SDS011;2497;47.410;9.740;2023-09-19T03:21:14;2.03;;;1.30;;
4963;SDS011;2497;47.410;9.740;2023-09-19T03:23:42;3.90;;;1.20;;
4963;SDS011;2497;47.410;9.740;2023-09-19T03:26:11;2.00;;;1.47;;
4963;SDS011;2497;47.410;9.740;2023-09-19T03:28:41;2.80;;;1.73;;
4963;SDS011;2497;47.410;9.740;2023-09-19T03:31:10;4.50;;;1.50;;
4963;SDS011;2497;47.410;9.740;2023-09-19T03:33:38;1.97;;;1.53;;
4963;SDS011;2497;47.410;9.740;2023-09-19T03:36:07;2.57;;;1.90;;
4963;SDS011;2497;47.410;9.740;2023-09-19T03:38:35;3.20;;;1.80;;
4963;SDS011;2497;47.410;9.740;2023-09-19T03:41:02;5.37;;;1.80;;
4963;SDS011;2497;47.410;9.740;2023-09-19T03:43:29;2.17;;;1.60;;
4963;SDS011;2497;47.410;9.740;2023-09-19T03:46:03;3.80;;;1.80;;
4963;SDS011;2497;47.410;9.740;2023-09-19T03:48:37;5.53;;;1.90;;
4963;SDS011;2497;47.410;9.740;2023-09-19T03:51:07;3.13;;;1.73;;
4963;SDS011;2497;47.410;9.740;2023-09-19T03:53:34;2.87;;;1.40;;
4963;SDS011;2497;47.410;9.740;2023-09-19T03:56:02;2.47;;;1.20;;
4963;SDS011;2497;47.410;9.740;2023-09-19T03:58:56;1.70;;;1.20;;
4963;SDS011;2497;47.410;9.740;2023-09-19T04:01:25;2.67;;;1.60;;
4963;SDS011;2497;47.410;9.740;2023-09-19T04:03:53;1.77;;;1.27;;
4963;SDS011;2497;47.410;9.740;2023-09-19T04:06:20;2.13;;;1.40;;
4963;SDS011;2497;47.410;9.740;2023-09-19T04:08:47;2.90;;;1.40;;
4963;SDS011;2497;47.410;9.740;2023-09-19T04:11:14;3.03;;;1.40;;
4963;SDS011;2497;47.410;9.740;2023-09-19T04:13:42;6.90;;;1.57;;
4963;SDS011;2497;47.410;9.740;2023-09-19T04:16:09;1.43;;;1.13;;
4963;SDS011;2497;47.410;9.740;2023-09-19T04:18:38;2.47;;;1.63;;
4963;SDS011;2497;47.410;9.740;2023-09-19T04:21:06;2.03;;;1.50;;
4963;SDS011;2497;47.410;9.740;2023-09-19T04:23:33;2.57;;;1.53;;
4963;SDS011;2497;47.410;9.740;2023-09-19T04:26:00;2.43;;;1.40;;
4963;SDS011;2497;47.410;9.740;2023-09-19T04:28:29;1.70;;;1.60;;
4963;SDS011;2497;47.410;9.740;2023-09-19T04:30:59;1.67;;;1.40;;
4963;SDS011;2497;47.410;9.740;2023-09-19T04:33:26;4.63;;;1.93;;
4963;SDS011;2497;47.410;9.740;2023-09-19T04:35:55;4.30;;;1.63;;
4963;SDS011;2497;47.410;9.740;2023-09-19T04:38:22;3.00;;;1.50;;
4963;SDS011;2497;47.410;9.740;2023-09-19T04:40:50;2.73;;;1.13;;
4963;SDS011;2497;47.410;9.740;2023-09-19T04:43:23;2.10;;;1.43;;
4963;SDS011;2497;47.410;9.740;2023-09-19T04:45:51;3.83;;;1.50;;
4963;SDS011;2497;47.410;9.740;2023-09-19T04:48:21;2.23;;;1.43;;
4963;SDS011;2497;47.410;9.740;2023-09-19T04:50:50;2.83;;;1.33;;
4963;SDS011;2497;47.410;9.740;2023-09-19T04:53:21;2.77;;;1.53;;
4963;SDS011;2497;47.410;9.740;2023-09-19T04:55:52;1.60;;;1.13;;
4963;SDS011;2497;47.410;9.740;2023-09-19T04:58:20;1.37;;;1.03;;
4963;SDS011;2497;47.410;9.740;2023-09-19T05:00:47;1.50;;;1.20;;
4963;SDS011;2497;47.410;9.740;2023-09-19T05:03:19;2.03;;;1.20;;
4963;SDS011;2497;47.410;9.740;2023-09-19T05:05:47;2.80;;;1.57;;
4963;SDS011;2497;47.410;9.740;2023-09-19T05:08:15;2.17;;;1.80;;
4963;SDS011;2497;47.410;9.740;2023-09-19T05:10:43;2.37;;;1.80;;
4963;SDS011;2497;47.410;9.740;2023-09-19T05:13:11;2.70;;;1.60;;
4963;SDS011;2497;47.410;9.740;2023-09-19T05:15:38;5.07;;;1.30;;
4963;SDS011;2497;47.410;9.740;2023-09-19T05:18:06;2.73;;;1.70;;
4963;SDS011;2497;47.410;9.740;2023-09-19T05:20:35;3.80;;;2.00;;
4963;SDS011;2497;47.410;9.740;2023-09-19T05:23:06;2.10;;;1.80;;
4963;SDS011;2497;47.410;9.740;2023-09-19T05:25:36;3.30;;;1.97;;
4963;SDS011;2497;47.410;9.740;2023-09-19T05:28:06;3.30;;;1.77;;
4963;SDS011;2497;47.410;9.740;2023-09-19T05:30:34;2.37;;;1.67;;
4963;SDS011;2497;47.410;9.740;2023-09-19T05:33:04;2.70;;;1.80;;
4963;SDS011;2497;47.410;9.740;2023-09-19T05:35:32;2.87;;;1.63;;
4963;SDS011;2497;47.410;9.740;2023-09-19T05:38:00;5.50;;;2.07;;
4963;SDS011;2497;47.410;9.740;2023-09-19T05:40:27;3.87;;;1.80;;
4963;SDS011;2497;47.410;9.740;2023-09-19T05:42:54;4.13;;;1.90;;
4963;SDS011;2497;47.410;9.740;2023-09-19T05:45:23;3.50;;;1.80;;
4963;SDS011;2497;47.410;9.740;2023-09-19T05:47:51;2.97;;;2.20;;
4963;SDS011;2497;47.410;9.740;2023-09-19T05:50:21;4.23;;;1.70;;
4963;SDS011;2497;47.410;9.740;2023-09-19T05:52:53;4.80;;;1.67;;
4963;SDS011;2497;47.410;9.740;2023-09-19T05:55:21;3.00;;;1.53;;
4963;SDS011;2497;47.410;9.740;2023-09-19T05:57:50;3.00;;;1.90;;
4963;SDS011;2497;47.410;9.740;2023-09-19T06:00:18;4.77;;;1.90;;
4963;SDS011;2497;47.410;9.740;2023-09-19T06:02:50;2.60;;;1.53;;
4963;SDS011;2497;47.410;9.740;2023-09-19T06:05:17;3.00;;;1.60;;
4963;SDS011;2497;47.410;9.740;2023-09-19T06:07:45;1.77;;;1.40;;
4963;SDS011;2497;47.410;9.740;2023-09-19T06:10:12;4.63;;;1.57;;
4963;SDS011;2497;47.410;9.740;2023-09-19T06:12:40;6.37;;;1.30;;
4963;SDS011;2497;47.410;9.740;2023-09-19T06:15:09;2.57;;;1.53;;
4963;SDS011;2497;47.410;9.740;2023-09-19T06:17:40;2.70;;;1.67;;
4963;SDS011;2497;47.410;9.740;2023-09-19T06:20:09;2.43;;;1.53;;
4963;SDS011;2497;47.410;9.740;2023-09-19T06:22:40;13.00;;;1.90;;
4963;SDS011;2497;47.410;9.740;2023-09-19T06:25:08;2.53;;;1.60;;
4963;SDS011;2497;47.410;9.740;2023-09-19T06:27:37;2.93;;;1.93;;
4963;SDS011;2497;47.410;9.740;2023-09-19T06:30:07;3.40;;;1.73;;
4963;SDS011;2497;47.410;9.740;2023-09-19T06:32:36;1.93;;;1.53;;
4963;SDS011;2497;47.410;9.740;2023-09-19T06:35:04;5.50;;;2.17;;
4963;SDS011;2497;47.410;9.740;2023-09-19T06:37:40;2.03;;;1.57;;
4963;SDS011;2497;47.410;9.740;2023-09-19T06:40:10;1.73;;;1.47;;
4963;SDS011;2497;47.410;9.740;2023-09-19T06:42:39;6.83;;;1.27;;
4963;SDS011;2497;47.410;9.740;2023-09-19T06:45:07;3.53;;;1.90;;
4963;SDS011;2497;47.410;9.740;2023-09-19T06:47:42;2.63;;;1.50;;
4963;SDS011;2497;47.410;9.740;2023-09-19T06:50:10;2.40;;;1.70;;
4963;SDS011;2497;47.410;9.740;2023-09-19T06:52:41;5.43;;;1.60;;
4963;SDS011;2497;47.410;9.740;2023-09-19T06:55:08;3.00;;;1.50;;
4963;SDS011;2497;47.410;9.740;2023-09-19T06:57:40;6.20;;;1.43;;
4963;SDS011;2497;47.410;9.740;2023-09-19T07:00:08;4.47;;;2.00;;
4963;SDS011;2497;47.410;9.740;2023-09-19T07:02:42;3.17;;;2.10;;
4963;SDS011;2497;47.410;9.740;2023-09-19T07:05:09;2.07;;;1.60;;
4963;SDS011;2497;47.410;9.740;2023-09-19T07:07:36;2.13;;;1.70;;
4963;SDS011;2497;47.410;9.740;2023-09-19T07:10:07;3.63;;;1.50;;
4963;SDS011;2497;47.410;9.740;2023-09-19T07:12:36;2.60;;;1.80;;
4963;SDS011;2497;47.410;9.740;2023-09-19T07:15:03;3.40;;;1.63;;
4963;SDS011;2497;47.410;9.740;2023-09-19T07:17:33;2.83;;;1.80;;
4963;SDS011;2497;47.410;9.740;2023-09-19T07:20:02;3.70;;;1.80;;
4963;SDS011;2497;47.410;9.740;2023-09-19T07:22:32;2.90;;;1.80;;
4963;SDS011;2497;47.410;9.740;2023-09-19T07:25:00;2.27;;;1.80;;
4963;SDS011;2497;47.410;9.740;2023-09-19T07:27:28;3.47;;;1.67;;
4963;SDS011;2497;47.410;9.740;2023-09-19T07:29:56;1.83;;;1.43;;
4963;SDS011;2497;47.410;9.740;2023-09-19T07:32:24;2.00;;;1.53;;
4963;SDS011;2497;47.410;9.740;2023-09-19T07:34:52;1.73;;;1.50;;
4963;SDS011;2497;47.410;9.740;2023-09-19T07:37:23;2.50;;;1.50;;
4963;SDS011;2497;47.410;9.740;2023-09-19T07:39:51;2.47;;;1.50;;
4963;SDS011;2497;47.410;9.740;2023-09-19T07:42:18;1.40;;;1.07;;
4963;SDS011;2497;47.410;9.740;2023-09-19T07:44:49;3.03;;;1.20;;
4963;SDS011;2497;47.410;9.740;2023-09-19T07:47:19;1.50;;;1.20;;
4963;SDS011;2497;47.410;9.740;2023-09-19T07:49:46;2.80;;;1.27;;
4963;SDS011;2497;47.410;9.740;2023-09-19T07:52:14;1.77;;;1.40;;
4963;SDS011;2497;47.410;9.740;2023-09-19T07:54:44;1.27;;;1.00;;
4963;SDS011;2497;47.410;9.740;2023-09-19T07:57:12;1.73;;;1.33;;
4963;SDS011;2497;47.410;9.740;2023-09-19T07:59:41;1.53;;;1.00;;
4963;SDS011;2497;47.410;9.740;2023-09-19T08:02:10;5.00;;;1.53;;
4963;SDS011;2497;47.410;9.740;2023-09-19T08:04:40;2.23;;;1.10;;
4963;SDS011;2497;47.410;9.740;2023-09-19T08:07:08;1.77;;;1.03;;
4963;SDS011;2497;47.410;9.740;2023-09-19T08:09:36;2.00;;;1.10;;
4963;SDS011;2497;47.410;9.740;2023-09-19T08:12:04;1.20;;;1.10;;
4963;SDS011;2497;47.410;9.740;2023-09-19T08:14:37;2.23;;;1.37;;
4963;SDS011;2497;47.410;9.740;2023-09-19T08:17:10;1.77;;;1.17;;
4963;SDS011;2497;47.410;9.740;2023-09-19T08:19:44;2.33;;;1.27;;
4963;SDS011;2497;47.410;9.740;2023-09-19T08:22:14;4.97;;;1.40;;
4963;SDS011;2497;47.410;9.740;2023-09-19T08:24:42;1.93;;;1.10;;
4963;SDS011;2497;47.410;9.740;2023-09-19T08:27:09;1.83;;;1.30;;
4963;SDS011;2497;47.410;9.740;2023-09-19T08:29:37;1.57;;;1.10;;
4963;SDS011;2497;47.410;9.740;2023-09-19T08:32:07;2.80;;;1.50;;
4963;SDS011;2497;47.410;9.740;2023-09-19T08:34:36;3.67;;;1.30;;
4963;SDS011;2497;47.410;9.740;2023-09-19T08:37:03;2.77;;;1.50;;
4963;SDS011;2497;47.410;9.740;2023-09-19T08:39:30;2.93;;;1.37;;
4963;SDS011;2497;47.410;9.740;2023-09-19T08:42:00;9.70;;;1.70;;
4963;SDS011;2497;47.410;9.740;2023-09-19T08:44:30;1.90;;;1.27;;
4963;SDS011;2497;47.410;9.740;2023-09-19T08:47:08;2.40;;;1.73;;
4963;SDS011;2497;47.410;9.740;2023-09-19T08:49:41;3.87;;;1.80;;
4963;SDS011;2497;47.410;9.740;2023-09-19T08:52:20;2.97;;;1.80;;
4963;SDS011;2497;47.410;9.740;2023-09-19T08:54:52;1.97;;;1.20;;
4963;SDS011;2497;47.410;9.740;2023-09-19T08:57:21;3.07;;;1.40;;
4963;SDS011;2497;47.410;9.740;2023-09-19T08:59:49;3.80;;;1.80;;
4963;SDS011;2497;47.410;9.740;2023-09-19T09:02:20;4.50;;;1.00;;
4963;SDS011;2497;47.410;9.740;2023-09-19T09:04:52;6.47;;;1.87;;
4963;SDS011;2497;47.410;9.740;2023-09-19T09:07:21;3.80;;;1.37;;
4963;SDS011;2497;47.410;9.740;2023-09-19T09:09:49;3.63;;;1.33;;
4963;SDS011;2497;47.410;9.740;2023-09-19T09:12:16;2.27;;;1.43;;
4963;SDS011;2497;47.410;9.740;2023-09-19T09:14:44;2.03;;;1.43;;
4963;SDS011;2497;47.410;9.740;2023-09-19T09:17:15;1.90;;;1.40;;
4963;SDS011;2497;47.410;9.740;2023-09-19T09:19:45;2.23;;;1.47;;
4963;SDS011;2497;47.410;9.740;2023-09-19T09:22:16;2.97;;;1.67;;
4963;SDS011;2497;47.410;9.740;2023-09-19T09:24:52;2.00;;;1.43;;
4963;SDS011;2497;47.410;9.740;2023-09-19T09:27:22;6.63;;;1.60;;
4963;SDS011;2497;47.410;9.740;2023-09-19T09:29:51;8.73;;;1.50;;
4963;SDS011;2497;47.410;9.740;2023-09-19T09:32:22;1.70;;;1.27;;
4963;SDS011;2497;47.410;9.740;2023-09-19T09:34:52;3.90;;;1.87;;
4963;SDS011;2497;47.410;9.740;2023-09-19T09:37:21;2.40;;;1.90;;
4963;SDS011;2497;47.410;9.740;2023-09-19T09:39:50;3.20;;;1.40;;
4963;SDS011;2497;47.410;9.740;2023-09-19T09:42:31;4.17;;;1.93;;
4963;SDS011;2497;47.410;9.740;2023-09-19T09:45:13;2.13;;;1.70;;
4963;SDS011;2497;47.410;9.740;2023-09-19T09:47:41;2.37;;;1.70;;
4963;SDS011;2497;47.410;9.740;2023-09-19T09:50:23;9.00;;;1.57;;
4963;SDS011;2497;47.410;9.740;2023-09-19T09:52:56;1.80;;;1.30;;
4963;SDS011;2497;47.410;9.740;2023-09-19T09:55:35;1.97;;;1.40;;
4963;SDS011;2497;47.410;9.740;2023-09-19T09:58:26;1.70;;;1.40;;
4963;SDS011;2497;47.410;9.740;2023-09-19T10:00:55;3.07;;;1.40;;
4963;SDS011;2497;47.410;9.740;2023-09-19T10:03:34;1.20;;;1.10;;
4963;SDS011;2497;47.410;9.740;2023-09-19T10:06:09;2.27;;;1.40;;
4963;SDS011;2497;47.410;9.740;2023-09-19T10:09:00;1.33;;;1.10;;
4963;SDS011;2497;47.410;9.740;2023-09-19T10:11:38;3.10;;;1.50;;
4963;SDS011;2497;47.410;9.740;2023-09-19T10:14:09;2.40;;;1.47;;
4963;SDS011;2497;47.410;9.740;2023-09-19T10:16:40;1.60;;;1.27;;
4963;SDS011;2497;47.410;9.740;2023-09-19T10:19:10;1.80;;;1.07;;
4963;SDS011;2497;47.410;9.740;2023-09-19T10:21:41;6.33;;;1.20;;
4963;SDS011;2497;47.410;9.740;2023-09-19T10:24:12;1.83;;;1.20;;
4963;SDS011;2497;47.410;9.740;2023-09-19T10:26:42;1.37;;;1.27;;
4963;SDS011;2497;47.410;9.740;2023-09-19T10:29:12;2.17;;;1.13;;
4963;SDS011;2497;47.410;9.740;2023-09-19T10:31:43;2.23;;;1.40;;
4963;SDS011;2497;47.410;9.740;2023-09-19T10:34:13;3.37;;;1.40;;
4963;SDS011;2497;47.410;9.740;2023-09-19T10:36:44;1.87;;;1.30;;
4963;SDS011;2497;47.410;9.740;2023-09-19T10:39:14;1.70;;;1.10;;
4963;SDS011;2497;47.410;9.740;2023-09-19T10:41:47;1.53;;;1.10;;
4963;SDS011;2497;47.410;9.740;2023-09-19T10:44:24;2.10;;;1.20;;
4963;SDS011;2497;47.410;9.740;2023-09-19T10:46:53;1.40;;;1.00;;
4963;SDS011;2497;47.410;9.740;2023-09-19T10:49:22;1.30;;;1.10;;
4963;SDS011;2497;47.410;9.740;2023-09-19T10:51:51;1.47;;;1.03;;
4963;SDS011;2497;47.410;9.740;2023-09-19T10:54:25;1.57;;;1.00;;
4963;SDS011;2497;47.410;9.740;2023-09-19T10:56:55;1.50;;;0.83;;
4963;SDS011;2497;47.410;9.740;2023-09-19T10:59:24;1.10;;;0.80;;
4963;SDS011;2497;47.410;9.740;2023-09-19T11:01:59;1.13;;;1.03;;
4963;SDS011;2497;47.410;9.740;2023-09-19T11:04:42;1.37;;;1.00;;
4963;SDS011;2497;47.410;9.740;2023-09-19T11:07:13;1.27;;;0.93;;
4963;SDS011;2497;47.410;9.740;2023-09-19T11:09:49;1.10;;;0.90;;
4963;SDS011;2497;47.410;9.740;2023-09-19T11:24:32;2.17;;;1.00;;
4963;SDS011;2497;47.410;9.740;2023-09-19T11:27:14;1.20;;;0.83;;
4963;SDS011;2497;47.410;9.740;2023-09-19T11:29:44;1.87;;;1.20;;
4963;SDS011;2497;47.410;9.740;2023-09-19T11:32:14;3.33;;;1.10;;
4963;SDS011;2497;47.410;9.740;2023-09-19T11:35:06;1.90;;;1.17;;
4963;SDS011;2497;47.410;9.740;2023-09-19T11:40:32;1.57;;;1.10;;
4963;SDS011;2497;47.410;9.740;2023-09-19T11:43:31;2.10;;;1.07;;
4963;SDS011;2497;47.410;9.740;2023-09-19T11:46:01;1.30;;;1.00;;
4963;SDS011;2497;47.410;9.740;2023-09-19T11:48:32;1.13;;;0.87;;
4963;SDS011;2497;47.410;9.740;2023-09-19T11:51:11;1.60;;;0.97;;
4963;SDS011;2497;47.410;9.740;2023-09-19T11:53:45;1.17;;;0.93;;
4963;SDS011;2497;47.410;9.740;2023-09-19T11:56:15;1.13;;;0.90;;
4963;SDS011;2497;47.410;9.740;2023-09-19T11:58:45;1.17;;;0.93;;
4963;SDS011;2497;47.410;9.740;2023-09-19T12:01:14;1.50;;;1.10;;
4963;SDS011;2497;47.410;9.740;2023-09-19T12:03:51;1.30;;;1.00;;
4963;SDS011;2497;47.410;9.740;2023-09-19T12:06:30;1.30;;;1.07;;
4963;SDS011;2497;47.410;9.740;2023-09-19T12:08:57;1.00;;;0.80;;
4963;SDS011;2497;47.410;9.740;2023-09-19T12:11:31;1.63;;;1.00;;
4963;SDS011;2497;47.410;9.740;2023-09-19T12:14:02;1.10;;;0.80;;
4963;SDS011;2497;47.410;9.740;2023-09-19T12:16:29;1.00;;;0.90;;
4963;SDS011;2497;47.410;9.740;2023-09-19T12:18:59;2.20;;;1.30;;
4963;SDS011;2497;47.410;9.740;2023-09-19T12:21:50;1.93;;;1.17;;
4963;SDS011;2497;47.410;9.740;2023-09-19T12:24:24;2.80;;;1.10;;
4963;SDS011;2497;47.410;9.740;2023-09-19T12:26:59;3.73;;;1.60;;
4963;SDS011;2497;47.410;9.740;2023-09-19T12:29:43;1.30;;;1.00;;
4963;SDS011;2497;47.410;9.740;2023-09-19T12:32:14;1.47;;;1.10;;
4963;SDS011;2497;47.410;9.740;2023-09-19T12:34:42;1.40;;;1.07;;
4963;SDS011;2497;47.410;9.740;2023-09-19T12:37:17;1.10;;;1.00;;
4963;SDS011;2497;47.410;9.740;2023-09-19T12:40:03;1.60;;;1.30;;
4963;SDS011;2497;47.410;9.740;2023-09-19T12:42:41;0.80;;;0.70;;
4963;SDS011;2497;47.410;9.740;2023-09-19T12:45:11;1.30;;;0.80;;
4963;SDS011;2497;47.410;9.740;2023-09-19T12:47:45;1.23;;;1.00;;
4963;SDS011;2497;47.410;9.740;2023-09-19T12:51:03;1.10;;;0.97;;
4963;SDS011;2497;47.410;9.740;2023-09-19T12:53:37;1.73;;;0.93;;
4963;SDS011;2497;47.410;9.740;2023-09-19T12:56:12;2.47;;;1.20;;
4963;SDS011;2497;47.410;9.740;2023-09-19T12:58:51;1.20;;;1.00;;
4963;SDS011;2497;47.410;9.740;2023-09-19T13:01:21;1.13;;;0.93;;
4963;SDS011;2497;47.410;9.740;2023-09-19T13:06:43;2.00;;;1.20;;
4963;SDS011;2497;47.410;9.740;2023-09-19T13:09:13;1.00;;;0.90;;
4963;SDS011;2497;47.410;9.740;2023-09-19T13:11:41;1.00;;;0.90;;
4963;SDS011;2497;47.410;9.740;2023-09-19T13:14:14;1.00;;;0.90;;
4963;SDS011;2497;47.410;9.740;2023-09-19T13:16:55;1.90;;;0.90;;
4963;SDS011;2497;47.410;9.740;2023-09-19T13:19:36;1.47;;;0.90;;
4963;SDS011;2497;47.410;9.740;2023-09-19T13:22:05;2.47;;;1.10;;
4963;SDS011;2497;47.410;9.740;2023-09-19T13:24:49;3.07;;;1.53;;
4963;SDS011;2497;47.410;9.740;2023-09-19T13:27:19;1.83;;;1.00;;
4963;SDS011;2497;47.410;9.740;2023-09-19T13:29:48;2.10;;;1.30;;
4963;SDS011;2497;47.410;9.740;2023-09-19T13:32:17;1.70;;;1.37;;
4963;SDS011;2497;47.410;9.740;2023-09-19T13:34:44;1.43;;;1.00;;
4963;SDS011;2497;47.410;9.740;2023-09-19T13:37:11;1.30;;;1.10;;
4963;SDS011;2497;47.410;9.740;2023-09-19T13:39:41;1.43;;;0.90;;
4963;SDS011;2497;47.410;9.740;2023-09-19T13:42:12;1.23;;;1.13;;
4963;SDS011;2497;47.410;9.740;2023-09-19T13:44:41;1.40;;;1.10;;
4963;SDS011;2497;47.410;9.740;2023-09-19T13:47:08;1.97;;;1.10;;
4963;SDS011;2497;47.410;9.740;2023-09-19T13:49:40;1.07;;;0.97;;
4963;SDS011;2497;47.410;9.740;2023-09-19T13:52:08;1.97;;;1.20;;
4963;SDS011;2497;47.410;9.740;2023-09-19T13:54:38;2.73;;;1.10;;
4963;SDS011;2497;47.410;9.740;2023-09-19T13:57:06;2.10;;;1.23;;
4963;SDS011;2497;47.410;9.740;2023-09-19T13:59:35;1.20;;;0.90;;
4963;SDS011;2497;47.410;9.740;2023-09-19T14:02:02;1.47;;;1.20;;
4963;SDS011;2497;47.410;9.740;2023-09-19T14:04:33;4.30;;;1.00;;
4963;SDS011;2497;47.410;9.740;2023-09-19T14:07:02;4.73;;;1.07;;
4963;SDS011;2497;47.410;9.740;2023-09-19T14:09:30;2.30;;;1.10;;
4963;SDS011;2497;47.410;9.740;2023-09-19T14:11:57;1.00;;;0.90;;
4963;SDS011;2497;47.410;9.740;2023-09-19T14:14:24;1.57;;;1.00;;
4963;SDS011;2497;47.410;9.740;2023-09-19T14:16:51;2.57;;;1.10;;
4963;SDS011;2497;47.410;9.740;2023-09-19T14:19:19;1.10;;;0.97;;
4963;SDS011;2497;47.410;9.740;2023-09-19T14:21:46;1.37;;;1.00;;
4963;SDS011;2497;47.410;9.740;2023-09-19T14:24:18;1.17;;;1.00;;
4963;SDS011;2497;47.410;9.740;2023-09-19T14:26:45;2.23;;;0.97;;
4963;SDS011;2497;47.410;9.740;2023-09-19T14:29:12;1.10;;;1.00;;
4963;SDS011;2497;47.410;9.740;2023-09-19T14:31:43;1.40;;;1.00;;
4963;SDS011;2497;47.410;9.740;2023-09-19T14:34:10;1.50;;;1.07;;
4963;SDS011;2497;47.410;9.740;2023-09-19T14:36:37;1.67;;;1.00;;
4963;SDS011;2497;47.410;9.740;2023-09-19T14:39:06;1.70;;;1.20;;
4963;SDS011;2497;47.410;9.740;2023-09-19T14:41:35;1.30;;;1.03;;
4963;SDS011;2497;47.410;9.740;2023-09-19T14:44:02;1.30;;;1.00;;
4963;SDS011;2497;47.410;9.740;2023-09-19T14:46:30;1.40;;;1.10;;
4963;SDS011;2497;47.410;9.740;2023-09-19T14:48:57;1.47;;;1.10;;
4963;SDS011;2497;47.410;9.740;2023-09-19T14:51:28;1.13;;;1.00;;
4963;SDS011;2497;47.410;9.740;2023-09-19T14:53:56;1.00;;;0.90;;
4963;SDS011;2497;47.410;9.740;2023-09-19T14:56:26;1.30;;;0.90;;
4963;SDS011;2497;47.410;9.740;2023-09-19T14:58:57;2.03;;;1.20;;
4963;SDS011;2497;47.410;9.740;2023-09-19T15:01:29;1.83;;;0.90;;
4963;SDS011;2497;47.410;9.740;2023-09-19T15:03:58;2.60;;;1.43;;
4963;SDS011;2497;47.410;9.740;2023-09-19T15:06:26;1.43;;;1.10;;
4963;SDS011;2497;47.410;9.740;2023-09-19T15:08:54;1.13;;;1.03;;
4963;SDS011;2497;47.410;9.740;2023-09-19T15:11:23;1.87;;;1.10;;
4963;SDS011;2497;47.410;9.740;2023-09-19T15:13:51;1.50;;;1.00;;
4963;SDS011;2497;47.410;9.740;2023-09-19T15:16:23;3.77;;;1.40;;
4963;SDS011;2497;47.410;9.740;2023-09-19T15:18:52;1.13;;;0.80;;
4963;SDS011;2497;47.410;9.740;2023-09-19T15:21:21;1.27;;;0.90;;
4963;SDS011;2497;47.410;9.740;2023-09-19T15:23:50;1.13;;;0.90;;
4963;SDS011;2497;47.410;9.740;2023-09-19T15:26:18;6.10;;;1.30;;
4963;SDS011;2497;47.410;9.740;2023-09-19T15:28:48;1.40;;;0.90;;
4963;SDS011;2497;47.410;9.740;2023-09-19T15:31:17;1.57;;;1.20;;
4963;SDS011;2497;47.410;9.740;2023-09-19T15:33:48;1.30;;;1.00;;
4963;SDS011;2497;47.410;9.740;2023-09-19T15:36:17;2.10;;;1.10;;
4963;SDS011;2497;47.410;9.740;2023-09-19T15:38:58;1.80;;;1.20;;
4963;SDS011;2497;47.410;9.740;2023-09-19T15:41:28;1.20;;;0.90;;
4963;SDS011;2497;47.410;9.740;2023-09-19T15:43:57;1.93;;;1.00;;
4963;SDS011;2497;47.410;9.740;2023-09-19T15:46:26;1.23;;;1.03;;
4963;SDS011;2497;47.410;9.740;2023-09-19T15:48:57;2.40;;;1.27;;
4963;SDS011;2497;47.410;9.740;2023-09-19T15:51:26;1.63;;;1.10;;
4963;SDS011;2497;47.410;9.740;2023-09-19T15:53:55;3.23;;;1.20;;
4963;SDS011;2497;47.410;9.740;2023-09-19T15:56:25;1.70;;;1.00;;